Time;durP1;ratioP1;P1;durP2;ratioP2;P2;SDS_P1;SDS_P2;PMS_P1;PMS_P2;Temp;Humidity;BMP_temperature;BMP_pressure;BME280_temperature;BME280_humidity;BME280_pressure;Samples;Min_cycle;Max_cycle;Signal;HPM_P1;HPM_P2
2022/04/20 00:00:20;;;;;;;6.82;3.22;;;;;;;9.24;55.00;101445.75;5092716;28;20031;-70
2022/04/20 00:02:46;;;;;;;5.22;3.65;;;;;;;9.28;55.49;101456.91;5091367;28;20031;-70
2022/04/20 00:05:12;;;;;;;17.35;5.38;;;;;;;9.21;54.89;101452.25;5111913;28;20031;-70
2022/04/20 00:07:37;;;;;;;7.95;3.53;;;;;;;9.20;55.22;101453.28;5103148;28;20039;-70
2022/04/20 00:10:04;;;;;;;6.45;3.72;;;;;;;9.22;55.45;101455.75;5092515;28;20032;-70
2022/04/20 00:12:30;;;;;;;8.63;3.28;;;;;;;9.18;55.48;101449.94;5092213;28;20036;-70
2022/04/20 00:14:55;;;;;;;5.82;2.95;;;;;;;9.16;56.00;101449.28;5111636;28;20024;-70
2022/04/20 00:17:20;;;;;;;8.10;4.80;;;;;;;9.13;55.50;101444.31;5111846;28;20035;-70
2022/04/20 00:19:46;;;;;;;4.78;3.00;;;;;;;9.17;55.76;101450.13;5110506;28;20081;-70
2022/04/20 00:22:11;;;;;;;5.03;3.30;;;;;;;9.11;56.74;101446.31;5111647;28;20034;-70
2022/04/20 00:24:36;;;;;;;7.28;3.70;;;;;;;9.09;55.90;101447.47;5111872;28;20524;-70
2022/04/20 00:27:02;;;;;;;6.32;3.08;;;;;;;9.09;56.28;101445.66;5111531;28;20032;-70
2022/04/20 00:29:27;;;;;;;5.07;3.03;;;;;;;9.06;55.86;101442.50;5111768;28;20028;-70
2022/04/20 00:31:53;;;;;;;7.43;3.88;;;;;;;9.05;56.08;101451.50;5099515;28;20077;-70
2022/04/20 00:34:18;;;;;;;4.70;3.30;;;;;;;9.05;56.05;101448.84;5103559;28;20105;-70
2022/04/20 00:36:44;;;;;;;6.82;3.92;;;;;;;8.99;56.45;101451.19;5091895;28;20055;-70
2022/04/20 00:39:09;;;;;;;9.60;3.40;;;;;;;8.93;57.10;101454.53;5091869;28;20119;-70
2022/04/20 00:41:35;;;;;;;5.88;3.05;;;;;;;8.89;56.72;101463.03;5091268;28;20084;-70
2022/04/20 00:44:01;;;;;;;8.07;3.65;;;;;;;8.83;56.90;101461.03;5100389;28;20073;-70
2022/04/20 00:46:28;;;;;;;8.20;4.10;;;;;;;8.76;57.36;101456.41;5111433;28;20519;-70
2022/04/20 00:48:55;;;;;;;6.85;3.70;;;;;;;8.67;57.63;101453.91;5111395;28;20034;-70
2022/04/20 00:51:21;;;;;;;6.05;3.97;;;;;;;8.67;57.64;101460.09;5111143;28;20035;-70
2022/04/20 00:53:46;;;;;;;7.13;4.05;;;;;;;8.60;57.48;101455.63;5111182;28;20046;-70
2022/04/20 00:56:12;;;;;;;6.50;3.38;;;;;;;8.53;58.39;101461.56;5111220;28;20036;-70
2022/04/20 00:58:40;;;;;;;7.45;3.90;;;;;;;8.49;58.29;101456.78;5110932;28;20028;-70
2022/04/20 01:01:07;;;;;;;8.80;4.00;;;;;;;8.44;58.68;101456.47;5110831;28;20023;-70
2022/04/20 01:03:33;;;;;;;8.85;4.03;;;;;;;8.31;58.99;101449.78;5102378;28;20100;-70
2022/04/20 01:05:58;;;;;;;9.50;4.70;;;;;;;8.34;58.85;101461.91;5108872;28;20520;-70
2022/04/20 01:08:24;;;;;;;7.00;3.78;;;;;;;8.29;58.99;101467.72;5091265;28;20110;-70
2022/04/20 01:10:49;;;;;;;6.50;4.03;;;;;;;8.24;59.06;101470.03;5091339;28;20498;-70
2022/04/20 01:13:14;;;;;;;6.75;3.55;;;;;;;8.23;58.93;101463.06;5098419;28;20127;-70
2022/04/20 01:15:40;;;;;;;7.38;4.22;;;;;;;8.20;58.67;101467.88;5110528;28;20034;-70
2022/04/20 01:18:13;;;;;;;6.85;3.70;;;;;;;8.16;58.72;101470.03;5109396;28;20076;-70
2022/04/20 01:20:39;;;;;;;6.82;3.75;;;;;;;8.12;58.92;101469.56;5110727;28;20030;-69
2022/04/20 01:23:04;;;;;;;6.32;3.45;;;;;;;8.08;58.61;101478.00;5110662;28;20031;-70
2022/04/20 01:25:29;;;;;;;8.70;5.05;;;;;;;8.02;58.87;101462.75;5110499;28;20034;-70
2022/04/20 01:27:55;;;;;;;7.85;3.95;;;;;;;8.03;58.78;101465.22;5109250;28;21049;-70
2022/04/20 01:30:20;;;;;;;7.60;3.78;;;;;;;7.99;58.73;101460.38;5110566;28;20432;-70
2022/04/20 01:32:46;;;;;;;5.95;4.05;;;;;;;7.97;58.49;101467.72;5109881;28;20046;-70
2022/04/20 01:35:11;;;;;;;7.95;3.90;;;;;;;7.93;58.78;101464.53;5108979;28;20038;-70
2022/04/20 01:37:36;;;;;;;6.28;3.45;;;;;;;7.92;58.12;101462.06;5107976;28;20141;-70
2022/04/20 01:40:02;;;;;;;5.45;2.97;;;;;;;7.84;58.32;101461.03;5090827;28;20133;-69
2022/04/20 01:42:27;;;;;;;6.65;3.67;;;;;;;7.86;57.96;101469.69;5098354;28;20077;-70
2022/04/20 01:44:53;;;;;;;6.90;3.55;;;;;;;7.86;57.90;101469.69;5095591;28;20035;-70
2022/04/20 01:47:18;;;;;;;6.50;3.40;;;;;;;7.86;57.85;101476.84;5090638;28;20169;-70
2022/04/20 01:49:43;;;;;;;8.48;3.60;;;;;;;7.84;58.34;101476.97;5089135;28;20028;-70
2022/04/20 01:52:09;;;;;;;7.93;3.53;;;;;;;7.78;57.72;101469.69;5109896;28;20043;-70
2022/04/20 01:54:34;;;;;;;8.55;4.18;;;;;;;7.79;57.55;101475.81;5110047;28;20504;-70
2022/04/20 01:56:59;;;;;;;5.22;3.47;;;;;;;7.75;57.53;101461.19;5104039;28;21014;-69
2022/04/20 01:59:25;;;;;;;8.63;4.25;;;;;;;7.79;57.91;101467.84;5108100;28;20041;-70
2022/04/20 02:04:34;;;;;;;7.35;3.20;;;;;;;7.77;57.24;101477.78;5109885;28;20131;-70
2022/04/20 02:07:00;;;;;;;5.30;3.15;;;;;;;7.73;58.03;101472.00;5109863;28;20122;-70
2022/04/20 02:09:25;;;;;;;10.70;3.75;;;;;;;7.71;57.63;101465.19;5109657;28;20027;-70
2022/04/20 02:11:51;;;;;;;5.45;3.15;;;;;;;7.69;57.65;101470.63;5109464;28;20027;-70
2022/04/20 02:14:16;;;;;;;6.78;3.38;;;;;;;7.62;56.83;101459.00;5105602;28;20035;-70
2022/04/20 02:16:42;;;;;;;5.25;3.33;;;;;;;7.67;57.38;101469.97;5090213;28;20036;-69
2022/04/20 02:19:07;;;;;;;9.48;3.55;;;;;;;7.66;57.45;101469.13;5107136;28;20058;-70
2022/04/20 02:21:33;;;;;;;9.60;3.75;;;;;;;7.61;58.64;101462.66;5109280;28;20054;-69
2022/04/20 02:23:58;;;;;;;6.75;3.28;;;;;;;7.60;57.84;101461.00;5109537;28;20118;-70
2022/04/20 02:26:23;;;;;;;5.55;3.20;;;;;;;7.59;57.61;101464.63;5109504;28;20071;-69
2022/04/20 02:28:49;;;;;;;6.57;3.85;;;;;;;7.55;57.86;101465.97;5108045;28;20031;-70
2022/04/20 02:31:16;;;;;;;10.85;4.00;;;;;;;7.55;58.37;101477.41;5095308;28;20118;-70
2022/04/20 02:33:42;;;;;;;7.32;3.58;;;;;;;7.51;57.85;101465.44;5109348;28;20088;-69
2022/04/20 02:36:07;;;;;;;5.53;3.40;;;;;;;7.49;57.89;101463.94;5109378;28;20027;-70
2022/04/20 02:38:34;;;;;;;8.07;3.88;;;;;;;7.49;57.68;101470.06;5109310;28;20027;-70
2022/04/20 02:41:00;;;;;;;8.82;3.80;;;;;;;7.45;58.34;101476.72;5109347;28;20372;-69
2022/04/20 02:43:25;;;;;;;7.78;3.38;;;;;;;7.41;58.48;101470.03;5108913;28;20142;-70
2022/04/20 02:45:51;;;;;;;7.03;3.83;;;;;;;7.41;58.19;101476.22;5097047;28;20032;-70
2022/04/20 02:48:16;;;;;;;4.55;3.50;;;;;;;7.39;58.12;101475.53;5089690;28;20043;-70
2022/04/20 02:50:43;;;;;;;6.90;3.95;;;;;;;7.37;58.41;101474.03;5089402;28;20059;-70
2022/04/20 02:53:08;;;;;;;11.57;4.20;;;;;;;7.36;58.48;101478.50;5089668;28;20074;-70
2022/04/20 02:55:34;;;;;;;8.20;4.15;;;;;;;7.33;58.53;101477.97;5089770;28;20428;-70
2022/04/20 02:57:59;;;;;;;8.10;3.92;;;;;;;7.30;58.66;101473.81;5089693;28;20514;-69
2022/04/20 03:00:24;;;;;;;6.80;4.57;;;;;;;7.22;58.73;101471.16;5089790;28;20036;-69
2022/04/20 03:02:50;;;;;;;9.02;3.67;;;;;;;7.26;58.48;101480.47;5107846;28;20478;-69
2022/04/20 03:05:16;;;;;;;5.93;3.35;;;;;;;7.24;59.15;101472.66;5102234;28;20471;-69
2022/04/20 03:07:41;;;;;;;6.40;3.50;;;;;;;7.21;58.62;101485.41;5102359;28;20476;-69
2022/04/20 03:10:07;;;;;;;7.80;3.95;;;;;;;7.20;58.69;101491.69;5089544;28;20024;-69
2022/04/20 03:12:32;;;;;;;6.15;3.53;;;;;;;7.17;58.63;101494.66;5089538;28;20097;-69
2022/04/20 03:14:58;;;;;;;7.88;3.35;;;;;;;7.14;59.23;101494.97;5089524;28;20028;-69
2022/04/20 03:17:24;;;;;;;5.75;3.45;;;;;;;7.10;58.90;101491.81;5109050;28;20035;-69
2022/04/20 03:19:51;;;;;;;8.57;3.88;;;;;;;7.07;59.33;101493.94;5109000;28;20058;-69
2022/04/20 03:22:16;;;;;;;8.02;3.50;;;;;;;7.00;59.36;101491.94;5100251;28;20394;-69
2022/04/20 03:24:42;;;;;;;7.13;3.40;;;;;;;6.98;59.39;101491.25;5091681;28;20028;-69
2022/04/20 03:27:07;;;;;;;7.97;3.60;;;;;;;6.91;59.32;101484.91;5093364;28;20020;-69
2022/04/20 03:29:34;;;;;;;7.82;4.35;;;;;;;6.97;60.04;101492.25;5112749;28;20028;-69
2022/04/20 03:32:07;;;;;;;4.43;3.25;;;;;;;6.95;59.85;101494.22;5112749;28;20035;-70
2022/04/20 03:34:33;;;;;;;6.18;3.65;;;;;;;6.90;60.06;101501.00;5112895;28;20038;-69
2022/04/20 03:36:58;;;;;;;6.70;3.67;;;;;;;6.84;59.77;101491.00;5112511;28;20020;-69
2022/04/20 03:39:24;;;;;;;6.75;4.03;;;;;;;6.84;60.04;101497.16;5111380;28;20031;-69
2022/04/20 03:41:49;;;;;;;6.68;4.15;;;;;;;6.86;60.29;101513.72;5112623;28;21016;-70
2022/04/20 03:44:14;;;;;;;22.65;5.05;;;;;;;6.83;60.43;101498.13;5111307;28;20107;-70
2022/04/20 03:46:40;;;;;;;7.20;4.13;;;;;;;6.79;60.04;101510.03;5098919;28;20032;-69
2022/04/20 03:49:05;;;;;;;10.35;4.75;;;;;;;6.78;60.67;101516.31;5092623;28;20024;-69
2022/04/20 03:51:32;;;;;;;8.80;4.00;;;;;;;6.76;60.93;101508.53;5112214;28;20395;-70
2022/04/20 03:53:58;;;;;;;6.00;3.65;;;;;;;6.72;60.73;101512.47;5112389;28;20038;-69
2022/04/20 03:56:23;;;;;;;5.97;3.80;;;;;;;6.71;61.01;101512.63;5092972;28;20051;-69
2022/04/20 03:58:48;;;;;;;8.23;4.35;;;;;;;6.68;61.13;101507.63;5092813;28;20028;-70
2022/04/20 04:01:14;;;;;;;7.00;3.83;;;;;;;6.64;60.81;101515.06;5092786;28;20532;-70
2022/04/20 04:03:40;;;;;;;6.03;3.80;;;;;;;6.62;61.17;101510.91;5111996;28;20382;-69
2022/04/20 04:06:06;;;;;;;7.63;4.20;;;;;;;6.59;60.92;101514.69;5112112;28;20036;-69
2022/04/20 04:08:31;;;;;;;7.35;4.30;;;;;;;6.57;61.13;101514.81;5112123;28;20080;-70
2022/04/20 04:10:57;;;;;;;6.65;3.58;;;;;;;6.57;61.36;101519.31;5112005;28;20039;-69
2022/04/20 04:13:22;;;;;;;7.18;3.63;;;;;;;6.52;61.39;101509.19;5110850;28;20390;-69
2022/04/20 04:15:49;;;;;;;7.43;3.90;;;;;;;6.53;61.33;101518.78;5111916;28;20059;-70
2022/04/20 04:18:14;;;;;;;10.35;4.03;;;;;;;6.47;61.46;101511.47;5111996;28;20455;-70
2022/04/20 04:20:40;;;;;;;7.95;4.57;;;;;;;6.50;61.28;101523.56;5111818;28;20107;-70
2022/04/20 04:23:06;;;;;;;8.52;3.90;;;;;;;6.49;61.79;101525.38;5111851;28;20037;-69
2022/04/20 04:25:31;;;;;;;7.20;3.78;;;;;;;6.49;61.37;101524.53;5111589;27;20483;-70
2022/04/20 04:27:57;;;;;;;8.77;4.25;;;;;;;6.43;61.81;101517.22;5110369;28;20032;-70
2022/04/20 04:30:22;;;;;;;7.75;4.40;;;;;;;6.42;61.74;101518.19;5111347;28;20416;-69
2022/04/20 04:32:48;;;;;;;5.88;3.30;;;;;;;6.42;61.86;101515.53;5111471;28;20028;-69
2022/04/20 04:35:13;;;;;;;8.27;3.63;;;;;;;6.45;62.00;101526.69;5111019;28;20031;-69
2022/04/20 04:37:39;;;;;;;8.32;4.13;;;;;;;6.45;61.73;101524.03;5111438;28;20024;-69
2022/04/20 04:40:05;;;;;;;8.35;3.95;;;;;;;6.44;62.12;101532.13;5111505;28;20024;-70
2022/04/20 04:42:31;;;;;;;8.68;3.63;;;;;;;6.45;61.91;101529.31;5109711;28;20052;-70
2022/04/20 04:48:36;;;;;;;8.73;4.10;;;;;;;6.42;61.86;101524.34;5107872;28;20039;-70
2022/04/20 04:50:26;;;;;;;9.73;4.53;;;;;;;6.37;62.02;101518.66;5111234;28;20071;-70
2022/04/20 04:52:51;;;;;;;7.00;3.88;;;;;;;6.48;61.65;101539.63;5111145;28;20035;-70
2022/04/20 04:55:17;;;;;;;8.95;4.10;;;;;;;6.40;61.97;101530.78;5111238;28;20057;-70
2022/04/20 04:57:42;;;;;;;9.00;4.07;;;;;;;6.48;61.37;101536.97;5111005;28;20114;-70
2022/04/20 05:00:08;;;;;;;6.95;3.83;;;;;;;6.53;61.96;101549.75;5110916;27;20513;-70
2022/04/20 05:02:33;;;;;;;9.77;3.58;;;;;;;6.61;61.50;101554.31;5110596;28;20388;-70
2022/04/20 05:04:58;;;;;;;9.30;4.20;;;;;;;6.69;61.98;101559.66;5110926;28;20061;-70
2022/04/20 05:07:27;;;;;;;11.45;4.60;;;;;;;6.84;61.60;101542.22;5111083;28;20085;-70
2022/04/20 05:09:52;;;;;;;12.20;5.50;;;;;;;7.46;60.27;101548.19;5110860;28;20046;-70
2022/04/20 05:12:19;;;;;;;7.55;4.25;;;;;;;8.04;58.44;101551.03;5110891;27;20059;-70
2022/04/20 05:14:45;;;;;;;8.20;4.25;;;;;;;8.34;57.44;101552.28;5110622;28;20043;-70
2022/04/20 05:17:10;;;;;;;10.32;3.92;;;;;;;8.45;56.91;101561.78;5110554;28;20356;-70
2022/04/20 05:19:35;;;;;;;9.85;4.65;;;;;;;8.47;56.43;101559.78;5110615;28;20036;-70
2022/04/20 05:22:01;;;;;;;9.13;4.55;;;;;;;8.60;55.90;101562.78;5110165;28;20024;-70
2022/04/20 05:24:26;;;;;;;9.07;4.20;;;;;;;8.57;55.85;101560.47;5110520;28;20039;-70
2022/04/20 05:26:52;;;;;;;7.22;3.88;;;;;;;8.56;56.15;101561.44;5110201;28;20391;-70
2022/04/20 05:29:19;;;;;;;5.75;3.42;;;;;;;8.73;56.12;101572.94;5110423;28;20128;-70
2022/04/20 05:31:45;;;;;;;9.07;3.88;;;;;;;9.03;55.24;101573.22;5110381;28;20486;-70
2022/04/20 05:34:10;;;;;;;8.75;4.55;;;;;;;9.30;54.40;101567.53;5110289;28;20031;-70
2022/04/20 05:42:03;;;;;;;8.70;4.47;;;;;;;9.12;54.87;101573.06;5090612;28;20097;-70
2022/04/20 05:44:29;;;;;;;10.75;4.50;;;;;;;9.02;54.68;101567.09;5090637;28;20039;-70
2022/04/20 05:46:54;;;;;;;8.30;4.30;;;;;;;9.13;55.45;101573.88;5089953;28;20111;-70
2022/04/20 05:49:20;;;;;;;11.27;4.72;;;;;;;9.19;54.99;101573.19;5090494;28;20456;-70
2022/04/20 05:51:45;;;;;;;21.10;4.13;;;;;;;9.02;55.02;101567.09;5090328;28;20032;-70
2022/04/20 05:54:10;;;;;;;8.25;4.13;;;;;;;8.86;55.71;101557.28;5090703;28;20051;-70
2022/04/20 05:56:36;;;;;;;6.25;4.22;;;;;;;8.74;55.88;101556.78;5090506;28;20047;-70
2022/04/20 05:59:01;;;;;;;12.80;4.53;;;;;;;8.77;56.46;101566.25;5090553;28;20032;-70
2022/04/20 06:01:26;;;;;;;10.13;5.10;;;;;;;8.84;55.82;101559.28;5090580;28;20028;-70
2022/04/20 06:03:52;;;;;;;8.23;4.30;;;;;;;8.99;54.85;101570.09;5090274;28;20036;-71
2022/04/20 06:06:18;;;;;;;8.95;4.53;;;;;;;9.13;54.99;101574.69;5089990;28;20135;-71
2022/04/20 06:08:44;;;;;;;8.02;4.35;;;;;;;9.10;54.93;101569.72;5090107;28;20024;-70
2022/04/20 06:11:11;;;;;;;15.70;4.80;;;;;;;9.04;55.38;101572.22;5109045;28;20409;-70
2022/04/20 06:13:36;;;;;;;8.40;4.15;;;;;;;9.00;55.72;101561.09;5109330;28;20092;-70
2022/04/20 06:16:05;;;;;;;13.13;4.78;;;;;;;9.00;54.98;101553.09;5108307;28;20395;-70
2022/04/20 06:18:30;;;;;;;6.95;3.88;;;;;;;9.03;54.73;101565.25;5109667;28;20036;-71
2022/04/20 06:20:55;;;;;;;7.45;4.85;;;;;;;9.04;55.28;101561.56;5098296;28;20034;-70
2022/04/20 06:23:22;;;;;;;9.35;4.03;;;;;;;9.00;55.66;101564.56;5107997;28;20154;-71
2022/04/20 06:25:48;;;;;;;10.52;4.80;;;;;;;8.95;55.26;101560.75;5109382;28;20435;-70
2022/04/20 06:28:13;;;;;;;12.88;5.88;;;;;;;8.98;56.01;101561.25;5109271;28;20031;-70
2022/04/20 06:30:39;;;;;;;8.52;3.90;;;;;;;9.05;56.08;101566.75;5108985;28;20034;-70
2022/04/20 06:33:04;;;;;;;10.77;4.35;;;;;;;9.15;56.01;101569.22;5107839;28;20032;-70
2022/04/20 06:35:29;;;;;;;7.45;3.92;;;;;;;9.16;55.84;101570.88;5109319;28;20057;-70
2022/04/20 06:37:55;;;;;;;8.98;3.92;;;;;;;9.30;55.77;101570.19;5109104;28;20027;-68
2022/04/20 06:40:20;;;;;;;6.57;3.78;;;;;;;9.47;55.21;101573.63;5109391;28;20063;-68
2022/04/20 06:42:45;;;;;;;9.93;4.13;;;;;;;9.61;54.93;101572.88;5089673;28;20511;-70
2022/04/20 06:45:11;;;;;;;8.15;4.68;;;;;;;9.75;54.64;101573.19;5089722;28;20074;-70
2022/04/20 06:47:36;;;;;;;7.10;4.03;;;;;;;9.85;55.21;101571.97;5089817;28;20131;-70
2022/04/20 06:50:02;;;;;;;7.80;3.80;;;;;;;10.03;53.52;101573.53;5089304;28;20028;-70
2022/04/20 07:00:39;;;;;;;6.90;4.10;;;;;;;10.18;52.90;101573.63;5094168;28;20166;-70
2022/04/20 07:03:08;;;;;;;9.70;3.88;;;;;;;10.20;53.49;101567.09;5112731;28;20110;-70
2022/04/20 07:05:35;;;;;;;7.65;4.32;;;;;;;10.20;52.71;101575.09;5113165;28;20591;-70
2022/04/20 07:08:01;;;;;;;7.70;4.05;;;;;;;10.10;53.60;101562.00;5113346;28;20031;-70
2022/04/20 07:10:27;;;;;;;7.38;4.10;;;;;;;10.18;53.07;101577.13;5112989;28;20156;-70
2022/04/20 07:12:52;;;;;;;9.68;4.30;;;;;;;10.26;53.38;101566.41;5112973;28;20039;-69
2022/04/20 07:15:18;;;;;;;11.18;5.50;;;;;;;10.40;53.43;101575.53;5112595;28;20027;-69
2022/04/20 07:17:43;;;;;;;8.23;4.20;;;;;;;10.53;53.40;101562.41;5112954;27;20039;-68
2022/04/20 07:20:10;;;;;;;8.73;4.65;;;;;;;10.68;52.37;101569.63;5113004;28;20066;-69
2022/04/20 07:22:37;;;;;;;10.63;5.13;;;;;;;10.79;51.57;101568.34;5111578;28;20392;-69
2022/04/20 07:25:04;;;;;;;9.93;4.07;;;;;;;10.92;53.14;101569.41;5112948;28;20031;-69
2022/04/20 07:27:29;;;;;;;11.85;4.60;;;;;;;11.04;51.27;101571.66;5112741;28;20084;-69
2022/04/20 07:29:54;;;;;;;8.27;4.05;;;;;;;11.37;50.47;101572.97;5112795;28;20032;-70
2022/04/20 07:32:20;;;;;;;7.13;4.18;;;;;;;11.95;49.23;101574.97;5112635;28;20028;-69
2022/04/20 07:34:45;;;;;;;10.20;4.78;;;;;;;12.58;47.03;101570.69;5101359;28;20028;-69
2022/04/20 07:37:11;;;;;;;9.10;4.10;;;;;;;13.18;45.64;101570.28;5093112;28;20468;-70
2022/04/20 07:39:36;;;;;;;9.30;4.13;;;;;;;13.86;45.44;101571.31;5112432;28;20467;-69
2022/04/20 07:42:03;;;;;;;7.88;3.78;;;;;;;14.35;44.05;101580.13;5112111;27;20165;-69
2022/04/20 07:44:28;;;;;;;8.20;4.05;;;;;;;14.18;44.57;101575.13;5112117;28;20147;-70
2022/04/20 07:46:53;;;;;;;6.88;3.95;;;;;;;13.84;44.81;101584.09;5112248;28;20260;-70
2022/04/20 07:52:02;;;;;;;6.07;3.85;;;;;;;14.64;43.37;101585.13;5112576;28;20050;-70
2022/04/20 07:54:28;;;;;;;8.63;4.00;;;;;;;15.60;41.56;101586.47;5110484;28;20027;-70
2022/04/20 07:56:54;;;;;;;10.23;4.28;;;;;;;16.84;38.11;101585.16;5111992;28;20493;-70
2022/04/20 07:59:19;;;;;;;7.15;3.83;;;;;;;17.93;36.62;101584.69;5092477;28;20570;-70
2022/04/20 08:01:44;;;;;;;7.85;4.15;;;;;;;19.09;34.47;101571.69;5092516;28;20489;-70
2022/04/20 08:04:10;;;;;;;5.70;3.78;;;;;;;20.40;32.41;101589.22;5092560;28;20035;-70
2022/04/20 08:06:35;;;;;;;5.25;3.67;;;;;;;20.86;30.95;101582.72;5092712;28;20060;-70
2022/04/20 08:09:01;;;;;;;5.38;3.75;;;;;;;21.15;30.22;101585.31;5092449;28;20035;-70
2022/04/20 08:11:26;;;;;;;8.43;4.03;;;;;;;20.72;30.16;101574.09;5091903;28;20116;-70
2022/04/20 08:14:10;;;;;;;8.38;4.25;;;;;;;21.27;29.42;101591.44;5090846;28;20032;-70
2022/04/20 08:16:35;;;;;;;6.35;4.00;;;;;;;21.86;28.19;101580.81;5111944;28;20038;-70
2022/04/20 08:19:01;;;;;;;5.13;3.60;;;;;;;21.82;28.91;101590.56;5111416;28;20364;-70
2022/04/20 08:21:27;;;;;;;8.82;4.22;;;;;;;21.54;28.35;101594.28;5111440;28;20031;-70
2022/04/20 08:23:53;;;;;;;5.43;3.88;;;;;;;21.43;28.93;101563.50;5111787;28;20024;-70
2022/04/20 08:26:18;;;;;;;8.00;3.83;;;;;;;22.15;27.61;101593.34;5111569;28;20049;-70
2022/04/20 08:28:44;;;;;;;6.38;3.65;;;;;;;22.34;27.41;101585.69;5108525;28;20038;-70
2022/04/20 08:31:09;;;;;;;9.48;3.90;;;;;;;21.69;27.23;101585.50;5090848;28;20395;-70
2022/04/20 08:33:35;;;;;;;6.57;3.67;;;;;;;21.43;28.50;101587.91;5091866;28;20119;-70
2022/04/20 08:36:00;;;;;;;7.50;3.95;;;;;;;21.45;28.54;101591.16;5092126;28;20119;-70
2022/04/20 08:38:25;;;;;;;6.95;3.90;;;;;;;21.59;28.19;101590.81;5092044;28;20024;-70
2022/04/20 08:40:53;;;;;;;6.15;3.85;;;;;;;21.49;28.63;101579.84;5111378;28;20494;-70
2022/04/20 08:43:19;;;;;;;7.55;4.57;;;;;;;20.78;28.70;101585.84;5111156;28;20048;-70
2022/04/20 08:45:48;;;;;;;9.73;3.72;;;;;;;19.39;31.50;101590.50;5111306;28;20414;-70
2022/04/20 08:48:14;;;;;;;5.50;4.35;;;;;;;18.01;32.99;101600.56;5111346;28;20027;-70
2022/04/20 08:50:39;;;;;;;7.20;4.75;;;;;;;16.96;34.65;101598.78;5111408;28;20093;-70
2022/04/20 08:53:05;;;;;;;10.30;3.65;;;;;;;16.27;36.63;101592.41;5111085;28;20027;-70
2022/04/20 08:55:31;;;;;;;14.15;4.82;;;;;;;15.69;37.56;101593.31;5110829;28;20063;-70
2022/04/20 08:57:56;;;;;;;7.88;4.00;;;;;;;15.43;38.77;101591.50;5109855;28;20031;-71
2022/04/20 09:00:25;;;;;;;3.92;3.03;;;;;;;15.22;38.78;101579.13;5091115;28;20475;-70
2022/04/20 09:02:53;;;;;;;8.90;5.68;;;;;;;15.13;40.34;101596.50;5110730;28;20107;-70
2022/04/20 09:05:20;;;;;;;11.02;4.28;;;;;;;15.06;39.52;101590.28;5110951;28;20114;-70
2022/04/20 09:07:46;;;;;;;5.95;3.67;;;;;;;15.03;39.52;101591.53;5111024;28;20461;-72
2022/04/20 09:10:11;;;;;;;6.50;4.05;;;;;;;14.90;38.96;101583.50;5110844;28;20122;-71
2022/04/20 09:12:44;;;;;;;9.02;3.67;;;;;;;14.82;39.53;101586.38;5111014;28;20038;-72
2022/04/20 09:15:31;;;;;;;10.55;4.10;;;;;;;14.88;40.44;101588.22;5109362;28;20081;-72
2022/04/20 09:18:01;;;;;;;6.22;4.07;;;;;;;15.01;40.41;101573.97;5110766;27;20474;-71
2022/04/20 09:20:27;;;;;;;7.65;3.97;;;;;;;15.04;37.41;101574.41;5110673;28;20123;-72
2022/04/20 09:23:07;;;;;;;7.30;3.80;;;;;;;15.01;39.00;101580.19;5109524;28;20107;-72
2022/04/20 09:25:35;;;;;;;5.03;3.30;;;;;;;14.96;39.20;101581.81;5110526;28;20027;-72
2022/04/20 09:28:02;;;;;;;8.38;4.20;;;;;;;14.89;38.80;101574.59;5110526;27;20065;-72
2022/04/20 09:30:38;;;;;;;8.73;4.43;;;;;;;14.90;39.55;101578.94;5090510;28;20039;-71
2022/04/20 09:33:07;;;;;;;6.95;4.15;;;;;;;14.87;39.72;101575.84;5101716;28;20024;-72
2022/04/20 09:35:43;;;;;;;7.80;3.47;;;;;;;14.87;38.38;101568.59;5110522;28;20383;-72
2022/04/20 09:38:10;;;;;;;5.47;3.83;;;;;;;14.89;40.00;101566.56;5110439;28;20054;-72
2022/04/20 09:40:37;;;;;;;5.78;3.65;;;;;;;14.97;37.84;101572.75;5110329;28;20028;-72
2022/04/20 09:43:06;;;;;;;8.07;3.38;;;;;;;14.93;38.42;101569.63;5109950;28;20051;-72
2022/04/20 09:45:33;;;;;;;5.45;3.63;;;;;;;14.92;39.05;101559.94;5090869;28;20024;-72
2022/04/20 09:51:12;;;;;;;4.80;2.83;;;;;;;14.82;37.39;101560.34;5110530;28;20100;-71
2022/04/20 09:53:40;;;;;;;8.88;3.55;;;;;;;14.74;37.59;101560.56;5097969;28;20028;-69
2022/04/20 09:56:19;;;;;;;3.67;2.70;;;;;;;14.86;36.80;101564.28;5093934;27;20148;-71
2022/04/20 09:58:46;;;;;;;6.57;3.03;;;;;;;14.91;38.29;101569.03;5094076;28;20039;-71
2022/04/20 10:01:27;;;;;;;4.93;2.75;;;;;;;14.97;38.75;101559.31;5091231;28;20020;-71
2022/04/20 10:03:56;;;;;;;7.43;2.92;;;;;;;15.02;38.46;101544.22;5109669;28;20038;-71
2022/04/20 10:06:21;;;;;;;4.80;3.17;;;;;;;15.21;37.10;101552.47;5109594;28;20031;-71
2022/04/20 10:08:47;;;;;;;4.82;3.53;;;;;;;15.17;38.19;101546.69;5109691;28;20063;-71
2022/04/20 10:11:14;;;;;;;5.10;3.17;;;;;;;15.32;39.10;101563.38;5108472;28;20039;-71
2022/04/20 10:13:41;;;;;;;3.38;2.53;;;;;;;15.37;36.77;101541.25;5109510;28;20028;-71
2022/04/20 10:16:11;;;;;;;5.53;2.97;;;;;;;15.33;38.50;101524.72;5109656;28;20950;-71
2022/04/20 10:18:39;;;;;;;4.20;3.50;;;;;;;15.31;35.58;101540.22;5096748;28;20024;-71
2022/04/20 10:21:12;;;;;;;3.92;2.45;;;;;;;15.25;37.18;101534.88;5108774;28;20027;-68
2022/04/20 10:23:47;;;;;;;3.40;2.70;;;;;;;15.36;37.19;101531.53;5095345;28;20098;-69
2022/04/20 10:26:15;;;;;;;4.30;3.03;;;;;;;15.41;38.24;101526.34;5092746;28;20020;-71
2022/04/20 10:29:01;;;;;;;6.22;3.97;;;;;;;15.30;38.07;101529.69;5092992;28;20028;-69
2022/04/20 10:31:42;;;;;;;5.22;3.13;;;;;;;15.17;38.08;101525.19;5093960;28;20019;-68
2022/04/20 10:34:13;;;;;;;11.60;3.80;;;;;;;15.16;38.58;101528.06;5093641;28;20024;-70
2022/04/20 10:36:38;;;;;;;9.75;3.75;;;;;;;15.19;39.04;101517.72;5093990;28;20030;-68
2022/04/20 10:39:23;;;;;;;6.80;3.35;;;;;;;15.30;40.11;101532.38;5093678;28;20043;-68
2022/04/20 10:42:17;;;;;;;8.00;3.45;;;;;;;15.37;39.04;101527.81;5092489;28;20055;-70
2022/04/20 10:44:55;;;;;;;6.38;3.53;;;;;;;15.36;39.03;101510.03;5108110;28;20148;-71
2022/04/20 10:47:34;;;;;;;8.88;3.70;;;;;;;15.48;39.13;101523.63;5109085;28;20055;-71
2022/04/20 10:50:19;;;;;;;6.53;3.78;;;;;;;15.38;38.50;101502.59;5109163;28;20023;-71
2022/04/20 10:53:04;;;;;;;5.68;3.47;;;;;;;15.42;39.13;101514.56;5108972;28;20024;-71
2022/04/20 10:55:36;;;;;;;5.45;3.22;;;;;;;15.68;39.40;101510.13;5107578;28;20019;-71
2022/04/20 10:58:15;;;;;;;5.05;3.40;;;;;;;15.73;37.58;101504.94;5108971;28;20390;-71
2022/04/20 11:00:41;;;;;;;8.27;4.53;;;;;;;15.69;37.07;101509.09;5108912;28;20036;-71
2022/04/20 11:03:10;;;;;;;3.90;2.80;;;;;;;15.74;37.82;101504.72;5109098;28;20028;-71
2022/04/20 11:05:55;;;;;;;8.60;3.35;;;;;;;15.76;37.43;101497.25;5109277;28;20487;-71
2022/04/20 11:08:22;;;;;;;9.65;3.72;;;;;;;15.71;37.73;101491.69;5109143;28;20035;-71
2022/04/20 11:19:20;;;;;;;4.68;3.45;;;;;;;15.81;36.17;101483.19;5109231;28;20104;-71
2022/04/20 11:22:06;;;;;;;5.13;3.50;;;;;;;15.81;37.89;101485.88;5109243;28;20917;-71
2022/04/20 11:24:31;;;;;;;4.75;3.53;;;;;;;15.97;36.86;101477.28;5109079;28;20024;-71
2022/04/20 11:26:58;;;;;;;4.00;3.25;;;;;;;16.05;36.94;101473.50;5109400;28;20481;-71
2022/04/20 11:29:28;;;;;;;4.78;2.47;;;;;;;16.19;36.50;101480.44;5088938;28;20028;-71
2022/04/20 11:31:58;;;;;;;5.20;2.95;;;;;;;16.14;35.64;101482.97;5089225;28;20467;-71
2022/04/20 11:34:26;;;;;;;4.05;2.78;;;;;;;16.03;36.14;101464.81;5089242;28;20023;-71
2022/04/20 11:36:53;;;;;;;6.45;3.35;;;;;;;16.09;36.25;101476.59;5108858;28;20030;-71
2022/04/20 11:39:27;;;;;;;6.55;2.90;;;;;;;16.08;36.06;101474.94;5107868;28;20035;-71
2022/04/20 11:41:55;;;;;;;5.75;3.30;;;;;;;16.05;36.50;101462.72;5107499;28;20059;-71
2022/04/20 11:44:24;;;;;;;5.88;3.25;;;;;;;16.20;37.90;101455.16;5088541;28;20028;-71
2022/04/20 11:46:51;;;;;;;4.40;3.17;;;;;;;16.38;36.71;101467.88;5111930;28;20119;-71
2022/04/20 11:49:17;;;;;;;3.55;2.88;;;;;;;16.31;35.90;101464.41;5112337;28;20084;-71
2022/04/20 11:51:57;;;;;;;4.85;3.22;;;;;;;16.20;37.39;101463.25;5112430;28;20088;-71
2022/04/20 11:54:25;;;;;;;6.68;3.10;;;;;;;16.20;35.84;101454.34;5112517;28;20024;-71
2022/04/20 11:56:51;;;;;;;5.15;3.40;;;;;;;16.11;37.40;101458.34;5112474;28;20035;-71
2022/04/20 11:59:18;;;;;;;3.90;3.05;;;;;;;16.07;36.30;101444.50;5092589;28;20020;-71
2022/04/20 12:01:45;;;;;;;8.35;3.88;;;;;;;16.05;36.32;101446.59;5103790;28;20048;-71